sensor_id;sensor_type;location;lat;lon;timestamp;pressure;altitude;pressure_sealevel;temperature;humidity
20942;BME280;10630;53.734;10.282;2022-12-18T00:02:15;102535.31;;;1.66;56.06
20942;BME280;10630;53.734;10.282;2022-12-18T00:04:42;102553.50;;;1.70;55.96
20942;BME280;10630;53.734;10.282;2022-12-18T00:07:08;102550.50;;;1.59;56.20
20942;BME280;10630;53.734;10.282;2022-12-18T00:09:36;102549.75;;;1.55;55.99
20942;BME280;10630;53.734;10.282;2022-12-18T00:12:05;102555.25;;;1.49;56.34
20942;BME280;10630;53.734;10.282;2022-12-18T00:14:44;102554.75;;;1.39;56.40
20942;BME280;10630;53.734;10.282;2022-12-18T00:17:10;102553.88;;;1.61;56.07
20942;BME280;10630;53.734;10.282;2022-12-18T00:19:37;102555.75;;;1.59;55.96
20942;BME280;10630;53.734;10.282;2022-12-18T00:22:04;102548.03;;;1.54;55.76
20942;BME280;10630;53.734;10.282;2022-12-18T00:24:32;102543.41;;;1.39;55.71
20942;BME280;10630;53.734;10.282;2022-12-18T00:26:59;102544.16;;;1.42;55.89
20942;BME280;10630;53.734;10.282;2022-12-18T00:29:26;102548.66;;;1.39;56.28
20942;BME280;10630;53.734;10.282;2022-12-18T00:31:53;102543.06;;;1.26;55.88
20942;BME280;10630;53.734;10.282;2022-12-18T00:34:20;102553.72;;;1.21;56.21
20942;BME280;10630;53.734;10.282;2022-12-18T00:36:47;102566.59;;;1.05;56.44
20942;BME280;10630;53.734;10.282;2022-12-18T00:39:14;102575.25;;;1.07;56.41
20942;BME280;10630;53.734;10.282;2022-12-18T00:41:41;102574.16;;;1.13;56.91
20942;BME280;10630;53.734;10.282;2022-12-18T00:44:26;102574.09;;;0.92;56.83
20942;BME280;10630;53.734;10.282;2022-12-18T00:46:52;102574.06;;;1.16;56.67
20942;BME280;10630;53.734;10.282;2022-12-18T00:49:19;102581.47;;;1.05;56.90
20942;BME280;10630;53.734;10.282;2022-12-18T00:51:46;102573.44;;;0.86;56.66
20942;BME280;10630;53.734;10.282;2022-12-18T00:54:13;102563.25;;;1.02;57.03
20942;BME280;10630;53.734;10.282;2022-12-18T00:56:39;102564.53;;;1.14;56.87
20942;BME280;10630;53.734;10.282;2022-12-18T00:59:14;102571.13;;;1.02;56.74
20942;BME280;10630;53.734;10.282;2022-12-18T01:01:40;102571.13;;;1.02;56.89
20942;BME280;10630;53.734;10.282;2022-12-18T01:04:07;102582.00;;;1.15;56.59
20942;BME280;10630;53.734;10.282;2022-12-18T01:06:33;102581.78;;;1.19;56.45
20942;BME280;10630;53.734;10.282;2022-12-18T01:09:00;102576.97;;;1.08;56.46
20942;BME280;10630;53.734;10.282;2022-12-18T01:11:27;102572.31;;;0.93;56.54
20942;BME280;10630;53.734;10.282;2022-12-18T01:13:54;102574.59;;;1.02;56.43
20942;BME280;10630;53.734;10.282;2022-12-18T01:16:21;102579.41;;;1.13;55.94
20942;BME280;10630;53.734;10.282;2022-12-18T01:18:51;102588.38;;;1.07;56.23
20942;BME280;10630;53.734;10.282;2022-12-18T01:21:17;102584.69;;;0.89;56.53
20942;BME280;10630;53.734;10.282;2022-12-18T01:23:44;102596.38;;;1.04;56.20
20942;BME280;10630;53.734;10.282;2022-12-18T01:26:12;102587.13;;;0.94;56.50
20942;BME280;10630;53.734;10.282;2022-12-18T01:28:38;102588.31;;;1.09;56.58
20942;BME280;10630;53.734;10.282;2022-12-18T01:31:16;102586.28;;;0.93;56.35
20942;BME280;10630;53.734;10.282;2022-12-18T01:33:44;102562.69;;;0.93;56.43
20942;BME280;10630;53.734;10.282;2022-12-18T01:36:15;102567.63;;;1.01;56.57
20942;BME280;10630;53.734;10.282;2022-12-18T01:38:42;102563.25;;;1.02;56.20
20942;BME280;10630;53.734;10.282;2022-12-18T01:41:09;102560.00;;;0.95;56.45
20942;BME280;10630;53.734;10.282;2022-12-18T01:43:55;102567.13;;;0.68;56.58
20942;BME280;10630;53.734;10.282;2022-12-18T01:46:27;102569.00;;;0.88;56.83
20942;BME280;10630;53.734;10.282;2022-12-18T01:48:54;102569.50;;;0.98;56.15
20942;BME280;10630;53.734;10.282;2022-12-18T01:51:23;102582.19;;;0.86;56.09
20942;BME280;10630;53.734;10.282;2022-12-18T01:53:50;102584.00;;;0.84;56.37
20942;BME280;10630;53.734;10.282;2022-12-18T01:56:18;102596.88;;;0.67;56.35
20942;BME280;10630;53.734;10.282;2022-12-18T01:58:48;102612.84;;;0.84;56.71
20942;BME280;10630;53.734;10.282;2022-12-18T02:01:17;102611.41;;;0.52;56.52
20942;BME280;10630;53.734;10.282;2022-12-18T02:03:44;102601.69;;;0.79;57.01
20942;BME280;10630;53.734;10.282;2022-12-18T02:06:21;102598.25;;;0.77;56.77
20942;BME280;10630;53.734;10.282;2022-12-18T02:22:12;102594.91;;;0.73;56.88
20942;BME280;10630;53.734;10.282;2022-12-18T02:24:59;102591.63;;;0.67;56.89
20942;BME280;10630;53.734;10.282;2022-12-18T02:27:28;102596.47;;;0.77;56.76
20942;BME280;10630;53.734;10.282;2022-12-18T02:29:55;102599.22;;;0.74;56.22
20942;BME280;10630;53.734;10.282;2022-12-18T02:32:25;102602.69;;;0.51;56.40
20942;BME280;10630;53.734;10.282;2022-12-18T02:34:54;102607.13;;;0.73;56.20
20942;BME280;10630;53.734;10.282;2022-12-18T02:37:21;102616.34;;;0.61;56.29
20942;BME280;10630;53.734;10.282;2022-12-18T02:39:48;102618.53;;;0.48;55.92
20942;BME280;10630;53.734;10.282;2022-12-18T02:42:16;102627.28;;;0.47;56.33
20942;BME280;10630;53.734;10.282;2022-12-18T02:44:47;102628.91;;;0.75;56.62
20942;BME280;10630;53.734;10.282;2022-12-18T02:47:15;102638.91;;;0.89;56.22
20942;BME280;10630;53.734;10.282;2022-12-18T02:49:53;102639.75;;;0.89;56.01
20942;BME280;10630;53.734;10.282;2022-12-18T02:57:49;102626.63;;;0.40;56.11
20942;BME280;10630;53.734;10.282;2022-12-18T03:05:37;102629.00;;;0.48;56.03
20942;BME280;10630;53.734;10.282;2022-12-18T03:08:13;102634.47;;;0.66;56.37
20942;BME280;10630;53.734;10.282;2022-12-18T03:10:42;102638.25;;;0.58;55.91
20942;BME280;10630;53.734;10.282;2022-12-18T03:13:13;102633.94;;;0.57;56.23
20942;BME280;10630;53.734;10.282;2022-12-18T03:15:42;102631.84;;;0.42;56.29
20942;BME280;10630;53.734;10.282;2022-12-18T03:18:14;102625.91;;;0.37;56.56
20942;BME280;10630;53.734;10.282;2022-12-18T03:20:43;102624.53;;;0.26;56.56
20942;BME280;10630;53.734;10.282;2022-12-18T03:23:11;102631.34;;;0.56;56.41
20942;BME280;10630;53.734;10.282;2022-12-18T03:25:41;102627.00;;;0.29;56.28
20942;BME280;10630;53.734;10.282;2022-12-18T03:28:10;102629.31;;;0.39;56.54
20942;BME280;10630;53.734;10.282;2022-12-18T03:30:38;102622.97;;;0.21;56.22
20942;BME280;10630;53.734;10.282;2022-12-18T03:33:08;102624.44;;;0.03;56.92
20942;BME280;10630;53.734;10.282;2022-12-18T03:35:39;102621.63;;;0.34;56.95
20942;BME280;10630;53.734;10.282;2022-12-18T03:38:06;102628.78;;;0.54;56.83
20942;BME280;10630;53.734;10.282;2022-12-18T03:40:35;102635.25;;;0.44;56.11
20942;BME280;10630;53.734;10.282;2022-12-18T03:43:30;102629.31;;;0.39;56.40
20942;BME280;10630;53.734;10.282;2022-12-18T03:46:00;102630.22;;;0.38;56.58
20942;BME280;10630;53.734;10.282;2022-12-18T03:48:29;102635.00;;;0.52;56.18
20942;BME280;10630;53.734;10.282;2022-12-18T03:50:59;102631.41;;;0.54;56.41
20942;BME280;10630;53.734;10.282;2022-12-18T03:55:54;102625.22;;;0.31;56.31
20942;BME280;10630;53.734;10.282;2022-12-18T03:58:23;102626.97;;;0.31;56.32
20942;BME280;10630;53.734;10.282;2022-12-18T04:00:51;102626.22;;;0.27;56.38
20942;BME280;10630;53.734;10.282;2022-12-18T04:03:19;102616.13;;;0.42;56.26
20942;BME280;10630;53.734;10.282;2022-12-18T04:05:51;102611.44;;;0.50;56.05
20942;BME280;10630;53.734;10.282;2022-12-18T04:08:18;102607.22;;;0.46;56.14
20942;BME280;10630;53.734;10.282;2022-12-18T04:10:46;102609.94;;;0.19;56.42
20942;BME280;10630;53.734;10.282;2022-12-18T04:13:12;102614.56;;;0.11;56.54
20942;BME280;10630;53.734;10.282;2022-12-18T04:15:38;102617.34;;;0.31;56.62
20942;BME280;10630;53.734;10.282;2022-12-18T04:18:06;102621.53;;;0.37;56.56
20942;BME280;10630;53.734;10.282;2022-12-18T04:20:32;102618.16;;;0.34;56.22
20942;BME280;10630;53.734;10.282;2022-12-18T04:22:58;102628.06;;;0.25;56.46
20942;BME280;10630;53.734;10.282;2022-12-18T04:25:25;102622.59;;;0.31;56.10
20942;BME280;10630;53.734;10.282;2022-12-18T04:27:51;102624.16;;;0.37;56.39
20942;BME280;10630;53.734;10.282;2022-12-18T04:30:18;102623.25;;;0.38;56.15
20942;BME280;10630;53.734;10.282;2022-12-18T04:32:44;102624.78;;;0.44;56.18
20942;BME280;10630;53.734;10.282;2022-12-18T04:35:17;102628.88;;;0.26;56.01
20942;BME280;10630;53.734;10.282;2022-12-18T04:37:44;102633.28;;;0.25;56.20
20942;BME280;10630;53.734;10.282;2022-12-18T04:40:10;102634.44;;;0.17;55.97
20942;BME280;10630;53.734;10.282;2022-12-18T04:42:38;102629.75;;;0.26;56.08
20942;BME280;10630;53.734;10.282;2022-12-18T04:45:05;102629.75;;;0.26;56.22
20942;BME280;10630;53.734;10.282;2022-12-18T04:47:32;102635.09;;;0.23;55.93
20942;BME280;10630;53.734;10.282;2022-12-18T04:49:58;102634.03;;;0.29;56.23
20942;BME280;10630;53.734;10.282;2022-12-18T04:52:25;102633.59;;;0.16;56.25
20942;BME280;10630;53.734;10.282;2022-12-18T04:54:51;102632.53;;;0.22;56.18
20942;BME280;10630;53.734;10.282;2022-12-18T04:57:18;102626.63;;;0.15;56.19
20942;BME280;10630;53.734;10.282;2022-12-18T04:59:44;102634.44;;;0.17;56.39
20942;BME280;10630;53.734;10.282;2022-12-18T05:02:10;102628.66;;;0.07;56.46
20942;BME280;10630;53.734;10.282;2022-12-18T05:04:37;102633.16;;;0.03;56.37
20942;BME280;10630;53.734;10.282;2022-12-18T05:07:03;102637.22;;;0.12;56.55
20942;BME280;10630;53.734;10.282;2022-12-18T05:09:30;102644.81;;;0.20;56.24
20942;BME280;10630;53.734;10.282;2022-12-18T05:11:56;102650.38;;;0.10;56.17
20942;BME280;10630;53.734;10.282;2022-12-18T05:14:23;102653.84;;;0.11;56.16
20942;BME280;10630;53.734;10.282;2022-12-18T05:16:49;102658.34;;;0.07;56.09
20942;BME280;10630;53.734;10.282;2022-12-18T05:19:16;102652.44;;;0.01;56.32
20942;BME280;10630;53.734;10.282;2022-12-18T05:21:42;102643.75;;;0.00;56.55
20942;BME280;10630;53.734;10.282;2022-12-18T05:24:09;102667.59;;;0.18;56.30
20942;BME280;10630;53.734;10.282;2022-12-18T05:26:35;102668.97;;;0.03;56.27
20942;BME280;10630;53.734;10.282;2022-12-18T05:29:02;102660.22;;;0.04;56.16
20942;BME280;10630;53.734;10.282;2022-12-18T05:31:28;102666.53;;;-0.04;56.33
20942;BME280;10630;53.734;10.282;2022-12-18T05:34:01;102667.31;;;0.00;56.21
20942;BME280;10630;53.734;10.282;2022-12-18T05:36:27;102665.53;;;0.01;56.34
20942;BME280;10630;53.734;10.282;2022-12-18T05:38:53;102665.06;;;-0.12;56.26
20942;BME280;10630;53.734;10.282;2022-12-18T05:41:20;102670.06;;;-0.05;56.10
20942;BME280;10630;53.734;10.282;2022-12-18T05:43:47;102683.59;;;-0.19;56.35
20942;BME280;10630;53.734;10.282;2022-12-18T05:46:14;102691.50;;;-0.20;56.32
20942;BME280;10630;53.734;10.282;2022-12-18T05:48:41;102681.06;;;-0.22;56.43
20942;BME280;10630;53.734;10.282;2022-12-18T05:51:09;102679.31;;;-0.21;56.59
20942;BME280;10630;53.734;10.282;2022-12-18T05:53:36;102677.41;;;-0.16;56.33
20942;BME280;10630;53.734;10.282;2022-12-18T05:56:05;102677.25;;;-0.11;56.30
20942;BME280;10630;53.734;10.282;2022-12-18T05:58:32;102671.47;;;-0.21;56.56
20942;BME280;10630;53.734;10.282;2022-12-18T06:01:05;102665.19;;;-0.15;56.35
20942;BME280;10630;53.734;10.282;2022-12-18T06:03:31;102661.00;;;-0.21;56.42
20942;BME280;10630;53.734;10.282;2022-12-18T06:05:59;102660.59;;;-0.37;56.35
20942;BME280;10630;53.734;10.282;2022-12-18T06:08:25;102674.38;;;-0.30;56.72
20942;BME280;10630;53.734;10.282;2022-12-18T06:10:52;102677.75;;;-0.27;56.64
20942;BME280;10630;53.734;10.282;2022-12-18T06:13:19;102678.13;;;-0.39;56.71
20942;BME280;10630;53.734;10.282;2022-12-18T06:15:46;102678.13;;;-0.39;56.99
20942;BME280;10630;53.734;10.282;2022-12-18T06:18:13;102678.78;;;-0.33;56.94
20942;BME280;10630;53.734;10.282;2022-12-18T06:20:39;102684.69;;;-0.26;56.66
20942;BME280;10630;53.734;10.282;2022-12-18T06:23:07;102683.81;;;-0.26;56.41
20942;BME280;10630;53.734;10.282;2022-12-18T06:25:36;102695.06;;;-0.51;56.29
20942;BME280;10630;53.734;10.282;2022-12-18T06:28:04;102693.06;;;-0.43;56.50
20942;BME280;10630;53.734;10.282;2022-12-18T06:30:30;102699.53;;;-0.26;56.50
20942;BME280;10630;53.734;10.282;2022-12-18T06:32:57;102704.19;;;-0.36;56.13
20942;BME280;10630;53.734;10.282;2022-12-18T06:35:23;102700.06;;;-0.43;56.32
20942;BME280;10630;53.734;10.282;2022-12-18T06:37:50;102706.03;;;-0.40;56.41
20942;BME280;10630;53.734;10.282;2022-12-18T06:40:17;102713.41;;;-0.53;56.55
20942;BME280;10630;53.734;10.282;2022-12-18T06:42:43;102713.06;;;-0.42;56.44
20942;BME280;10630;53.734;10.282;2022-12-18T06:45:10;102716.00;;;-0.51;56.38
20942;BME280;10630;53.734;10.282;2022-12-18T06:47:37;102711.41;;;-0.73;56.64
20942;BME280;10630;53.734;10.282;2022-12-18T06:50:04;102706.97;;;-0.71;57.09
20942;BME280;10630;53.734;10.282;2022-12-18T06:52:32;102710.75;;;-0.51;56.98
20942;BME280;10630;53.734;10.282;2022-12-18T06:54:58;102710.75;;;-0.51;57.06
20942;BME280;10630;53.734;10.282;2022-12-18T06:57:25;102710.56;;;-0.75;57.20
20942;BME280;10630;53.734;10.282;2022-12-18T06:59:51;102711.09;;;-0.64;56.97
20942;BME280;10630;53.734;10.282;2022-12-18T07:02:18;102707.66;;;-0.64;57.24
20942;BME280;10630;53.734;10.282;2022-12-18T07:04:44;102714.63;;;-0.65;56.91
20942;BME280;10630;53.734;10.282;2022-12-18T07:07:11;102722.97;;;-0.52;56.92
20942;BME280;10630;53.734;10.282;2022-12-18T07:09:37;102743.88;;;-0.50;56.76
20942;BME280;10630;53.734;10.282;2022-12-18T07:12:04;102717.09;;;-0.58;56.78
20942;BME280;10630;53.734;10.282;2022-12-18T07:14:31;102711.94;;;-0.61;57.05
20942;BME280;10630;53.734;10.282;2022-12-18T07:16:57;102706.84;;;-0.66;56.97
20942;BME280;10630;53.734;10.282;2022-12-18T07:19:25;102710.41;;;-0.69;57.06
20942;BME280;10630;53.734;10.282;2022-12-18T07:21:51;102709.25;;;-0.58;57.25
20942;BME280;10630;53.734;10.282;2022-12-18T07:24:18;102709.13;;;-0.55;57.00
20942;BME280;10630;53.734;10.282;2022-12-18T07:26:48;102719.53;;;-0.84;57.30
20942;BME280;10630;53.734;10.282;2022-12-18T07:29:14;102727.16;;;-0.76;57.28
20942;BME280;10630;53.734;10.282;2022-12-18T07:31:41;102734.38;;;-0.54;57.46
20942;BME280;10630;53.734;10.282;2022-12-18T07:34:12;102735.28;;;-0.55;57.36
20942;BME280;10630;53.734;10.282;2022-12-18T07:36:38;102736.59;;;-0.40;57.06
20942;BME280;10630;53.734;10.282;2022-12-18T07:39:05;102738.47;;;-0.44;57.19
20942;BME280;10630;53.734;10.282;2022-12-18T07:41:32;102736.28;;;-0.29;57.02
20942;BME280;10630;53.734;10.282;2022-12-18T07:43:58;102744.41;;;-0.69;56.93
20942;BME280;10630;53.734;10.282;2022-12-18T07:46:25;102740.69;;;-0.32;56.82
20942;BME280;10630;53.734;10.282;2022-12-18T07:48:51;102745.88;;;-0.30;56.90
20942;BME280;10630;53.734;10.282;2022-12-18T07:51:18;102746.00;;;-0.65;56.71
20942;BME280;10630;53.734;10.282;2022-12-18T07:53:44;102743.75;;;-0.17;56.80
20942;BME280;10630;53.734;10.282;2022-12-18T07:56:16;102755.31;;;-0.24;56.60
20942;BME280;10630;53.734;10.282;2022-12-18T07:58:53;102753.72;;;-0.28;56.56
20942;BME280;10630;53.734;10.282;2022-12-18T08:01:20;102747.03;;;-0.39;56.91
20942;BME280;10630;53.734;10.282;2022-12-18T08:03:47;102749.88;;;-0.46;57.08
20942;BME280;10630;53.734;10.282;2022-12-18T08:06:17;102749.53;;;-0.06;57.16
20942;BME280;10630;53.734;10.282;2022-12-18T08:08:44;102752.03;;;-0.03;56.79
20942;BME280;10630;53.734;10.282;2022-12-18T08:11:11;102754.75;;;-0.34;57.05
20942;BME280;10630;53.734;10.282;2022-12-18T08:13:37;102764.00;;;0.06;57.08
20942;BME280;10630;53.734;10.282;2022-12-18T08:16:05;102758.78;;;0.05;56.68
20942;BME280;10630;53.734;10.282;2022-12-18T08:18:33;102763.94;;;0.08;56.68
20942;BME280;10630;53.734;10.282;2022-12-18T08:21:08;102759.59;;;0.07;56.38
20942;BME280;10630;53.734;10.282;2022-12-18T08:23:35;102757.78;;;0.37;56.33
20942;BME280;10630;53.734;10.282;2022-12-18T08:26:08;102755.38;;;0.03;56.62
20942;BME280;10630;53.734;10.282;2022-12-18T08:28:34;102754.91;;;0.18;56.35
20942;BME280;10630;53.734;10.282;2022-12-18T08:31:01;102742.38;;;0.53;55.96
20942;BME280;10630;53.734;10.282;2022-12-18T08:33:28;102744.69;;;0.62;55.79
20942;BME280;10630;53.734;10.282;2022-12-18T08:35:54;102739.16;;;0.45;55.67
20942;BME280;10630;53.734;10.282;2022-12-18T08:38:20;102749.19;;;0.32;56.05
20942;BME280;10630;53.734;10.282;2022-12-18T08:40:47;102741.78;;;0.45;56.06
20942;BME280;10630;53.734;10.282;2022-12-18T08:43:14;102742.66;;;0.45;56.19
20942;BME280;10630;53.734;10.282;2022-12-18T08:45:59;102748.13;;;0.65;55.53
20942;BME280;10630;53.734;10.282;2022-12-18T08:48:26;102750.16;;;0.29;55.52
20942;BME280;10630;53.734;10.282;2022-12-18T08:50:56;102739.34;;;0.66;55.80
20942;BME280;10630;53.734;10.282;2022-12-18T08:53:26;102737.31;;;0.74;55.97
20942;BME280;10630;53.734;10.282;2022-12-18T08:56:02;102733.63;;;0.54;55.26
20942;BME280;10630;53.734;10.282;2022-12-18T08:58:28;102735.13;;;0.87;55.37
20942;BME280;10630;53.734;10.282;2022-12-18T09:00:59;102735.06;;;0.88;54.98
20942;BME280;10630;53.734;10.282;2022-12-18T09:03:26;102738.66;;;0.60;55.11
20942;BME280;10630;53.734;10.282;2022-12-18T09:05:52;102740.88;;;0.97;55.31
20942;BME280;10630;53.734;10.282;2022-12-18T09:08:19;102743.19;;;1.06;55.16
20942;BME280;10630;53.734;10.282;2022-12-18T09:10:46;102743.47;;;0.98;54.67
20942;BME280;10630;53.734;10.282;2022-12-18T09:13:14;102737.78;;;1.10;54.62
20942;BME280;10630;53.734;10.282;2022-12-18T09:15:42;102741.91;;;0.92;54.57
20942;BME280;10630;53.734;10.282;2022-12-18T09:18:09;102746.66;;;1.32;54.60
20942;BME280;10630;53.734;10.282;2022-12-18T09:20:36;102744.75;;;1.12;54.68
20942;BME280;10630;53.734;10.282;2022-12-18T09:23:03;102741.66;;;1.48;54.71
20942;BME280;10630;53.734;10.282;2022-12-18T09:25:30;102740.69;;;1.50;54.30
20942;BME280;10630;53.734;10.282;2022-12-18T09:28:02;102750.00;;;1.59;53.83
20942;BME280;10630;53.734;10.282;2022-12-18T09:30:29;102745.41;;;1.64;53.79
20942;BME280;10630;53.734;10.282;2022-12-18T09:32:56;102744.81;;;1.10;54.12
20942;BME280;10630;53.734;10.282;2022-12-18T09:35:22;102745.25;;;1.21;54.57
20942;BME280;10630;53.734;10.282;2022-12-18T09:37:49;102739.91;;;1.24;54.67
20942;BME280;10630;53.734;10.282;2022-12-18T09:40:22;102746.00;;;1.95;54.00
20942;BME280;10630;53.734;10.282;2022-12-18T09:42:57;102743.44;;;1.47;53.91
20942;BME280;10630;53.734;10.282;2022-12-18T09:45:25;102742.94;;;1.83;53.52
20942;BME280;10630;53.734;10.282;2022-12-18T09:47:52;102738.41;;;1.87;53.30
20942;BME280;10630;53.734;10.282;2022-12-18T09:50:28;102742.91;;;1.61;53.43
20942;BME280;10630;53.734;10.282;2022-12-18T09:52:57;102745.31;;;1.89;53.72
20942;BME280;10630;53.734;10.282;2022-12-18T09:55:28;102741.72;;;2.36;52.82
20942;BME280;10630;53.734;10.282;2022-12-18T09:58:13;102738.03;;;2.18;52.46
20942;BME280;10630;53.734;10.282;2022-12-18T10:00:42;102741.38;;;2.44;52.33
20942;BME280;10630;53.734;10.282;2022-12-18T10:03:12;102741.06;;;2.52;51.87
20942;BME280;10630;53.734;10.282;2022-12-18T10:10:57;102744.63;;;2.29;51.88
20942;BME280;10630;53.734;10.282;2022-12-18T10:13:31;102739.34;;;2.51;51.81
20942;BME280;10630;53.734;10.282;2022-12-18T10:16:21;102741.38;;;2.65;51.79
20942;BME280;10630;53.734;10.282;2022-12-18T10:21:43;102734.44;;;2.21;52.29
20942;BME280;10630;53.734;10.282;2022-12-18T10:27:09;102741.44;;;2.84;51.83
20942;BME280;10630;53.734;10.282;2022-12-18T10:29:37;102750.00;;;2.89;51.73
20942;BME280;10630;53.734;10.282;2022-12-18T10:32:04;102755.50;;;2.62;51.53
20942;BME280;10630;53.734;10.282;2022-12-18T10:34:30;102762.19;;;2.71;51.33
20942;BME280;10630;53.734;10.282;2022-12-18T10:36:56;102759.28;;;2.57;51.92
20942;BME280;10630;53.734;10.282;2022-12-18T10:39:24;102759.50;;;2.50;51.80
20942;BME280;10630;53.734;10.282;2022-12-18T10:42:16;102762.38;;;2.87;51.47
20942;BME280;10630;53.734;10.282;2022-12-18T10:44:40;102758.41;;;2.97;50.86
20942;BME280;10630;53.734;10.282;2022-12-18T10:47:11;102755.06;;;2.94;51.27
20942;BME280;10630;53.734;10.282;2022-12-18T10:49:39;102747.34;;;3.10;50.94
20942;BME280;10630;53.734;10.282;2022-12-18T10:52:14;102751.69;;;3.11;51.26
20942;BME280;10630;53.734;10.282;2022-12-18T10:54:46;102745.66;;;3.28;51.14
20942;BME280;10630;53.734;10.282;2022-12-18T10:57:14;102738.13;;;3.39;50.42
20942;BME280;10630;53.734;10.282;2022-12-18T10:59:52;102736.09;;;3.06;50.31
20942;BME280;10630;53.734;10.282;2022-12-18T11:02:33;102734.72;;;3.37;50.64
20942;BME280;10630;53.734;10.282;2022-12-18T11:05:00;102729.00;;;3.08;50.82
20942;BME280;10630;53.734;10.282;2022-12-18T11:07:46;102730.38;;;3.36;50.90
20942;BME280;10630;53.734;10.282;2022-12-18T11:10:16;102738.13;;;3.77;50.37
20942;BME280;10630;53.734;10.282;2022-12-18T11:12:42;102739.84;;;3.59;50.45
20942;BME280;10630;53.734;10.282;2022-12-18T11:15:42;102741.28;;;3.67;50.21
20942;BME280;10630;53.734;10.282;2022-12-18T11:18:03;102732.00;;;3.58;50.43
20942;BME280;10630;53.734;10.282;2022-12-18T11:20:34;102729.44;;;3.37;50.43
20942;BME280;10630;53.734;10.282;2022-12-18T11:23:10;102725.94;;;4.11;50.55
20942;BME280;10630;53.734;10.282;2022-12-18T11:25:50;102721.47;;;4.31;49.73
20942;BME280;10630;53.734;10.282;2022-12-18T11:28:27;102712.25;;;4.40;49.06
20942;BME280;10630;53.734;10.282;2022-12-18T11:33:42;102699.69;;;3.35;50.08
20942;BME280;10630;53.734;10.282;2022-12-18T11:36:32;102702.34;;;3.91;49.73
20942;BME280;10630;53.734;10.282;2022-12-18T11:39:00;102707.09;;;3.65;49.80
20942;BME280;10630;53.734;10.282;2022-12-18T11:41:30;102704.81;;;3.76;50.10
20942;BME280;10630;53.734;10.282;2022-12-18T11:44:28;102703.50;;;3.85;49.81
20942;BME280;10630;53.734;10.282;2022-12-18T11:46:59;102703.69;;;3.63;50.16
20942;BME280;10630;53.734;10.282;2022-12-18T11:49:28;102706.78;;;4.08;50.11
20942;BME280;10630;53.734;10.282;2022-12-18T11:54:42;102696.06;;;4.48;50.26
20942;BME280;10630;53.734;10.282;2022-12-18T12:02:12;102700.06;;;4.20;49.29
20942;BME280;10630;53.734;10.282;2022-12-18T12:14:54;102701.38;;;4.64;48.59
20942;BME280;10630;53.734;10.282;2022-12-18T12:22:45;102664.22;;;3.98;49.24
20942;BME280;10630;53.734;10.282;2022-12-18T12:33:04;102656.13;;;3.66;49.46
20942;BME280;10630;53.734;10.282;2022-12-18T12:38:18;102661.47;;;3.64;50.87
20942;BME280;10630;53.734;10.282;2022-12-18T12:40:57;102649.78;;;3.88;50.48
20942;BME280;10630;53.734;10.282;2022-12-18T12:43:38;102646.88;;;3.57;50.62
20942;BME280;10630;53.734;10.282;2022-12-18T12:46:16;102636.91;;;3.64;50.57
20942;BME280;10630;53.734;10.282;2022-12-18T12:48:48;102627.88;;;3.87;50.43
20942;BME280;10630;53.734;10.282;2022-12-18T12:53:41;102625.25;;;4.05;49.99
20942;BME280;10630;53.734;10.282;2022-12-18T12:56:09;102615.28;;;3.57;50.47
20942;BME280;10630;53.734;10.282;2022-12-18T12:58:41;102607.94;;;3.27;50.76
20942;BME280;10630;53.734;10.282;2022-12-18T13:04:04;102599.41;;;3.03;51.87
20942;BME280;10630;53.734;10.282;2022-12-18T13:06:59;102603.03;;;3.00;52.40
20942;BME280;10630;53.734;10.282;2022-12-18T13:09:22;102609.72;;;2.89;52.44
20942;BME280;10630;53.734;10.282;2022-12-18T13:11:49;102600.09;;;2.88;52.49
20942;BME280;10630;53.734;10.282;2022-12-18T13:17:16;102588.31;;;2.96;52.21
20942;BME280;10630;53.734;10.282;2022-12-18T13:19:48;102587.91;;;2.87;52.14
20942;BME280;10630;53.734;10.282;2022-12-18T13:22:22;102589.38;;;2.73;52.35
20942;BME280;10630;53.734;10.282;2022-12-18T13:24:49;102591.28;;;2.69;52.54
20942;BME280;10630;53.734;10.282;2022-12-18T13:30:02;102584.47;;;3.23;53.03
20942;BME280;10630;53.734;10.282;2022-12-18T13:32:48;102582.72;;;2.45;52.45
20942;BME280;10630;53.734;10.282;2022-12-18T13:35:37;102591.44;;;3.24;52.61
20942;BME280;10630;53.734;10.282;2022-12-18T13:38:21;102591.66;;;3.00;52.80
20942;BME280;10630;53.734;10.282;2022-12-18T13:45:49;102603.41;;;3.12;52.02
20942;BME280;10630;53.734;10.282;2022-12-18T13:48:25;102599.09;;;3.47;52.16
20942;BME280;10630;53.734;10.282;2022-12-18T13:50:57;102591.94;;;3.49;51.89
20942;BME280;10630;53.734;10.282;2022-12-18T13:53:26;102600.56;;;2.78;52.07
20942;BME280;10630;53.734;10.282;2022-12-18T13:55:53;102598.94;;;2.95;52.35
20942;BME280;10630;53.734;10.282;2022-12-18T13:58:20;102589.16;;;2.97;52.42
20942;BME280;10630;53.734;10.282;2022-12-18T14:00:47;102595.78;;;2.47;52.78
20942;BME280;10630;53.734;10.282;2022-12-18T14:03:25;102602.41;;;2.95;52.79
20942;BME280;10630;53.734;10.282;2022-12-18T14:05:53;102609.03;;;2.25;52.71
20942;BME280;10630;53.734;10.282;2022-12-18T14:08:21;102619.47;;;2.87;53.45
20942;BME280;10630;53.734;10.282;2022-12-18T14:10:52;102613.59;;;2.61;53.08
20942;BME280;10630;53.734;10.282;2022-12-18T14:13:21;102608.34;;;2.61;53.13
20942;BME280;10630;53.734;10.282;2022-12-18T14:15:49;102610.91;;;2.81;53.21
20942;BME280;10630;53.734;10.282;2022-12-18T14:20:46;102609.81;;;2.06;54.04
20942;BME280;10630;53.734;10.282;2022-12-18T14:23:34;102596.53;;;2.30;53.95
20942;BME280;10630;53.734;10.282;2022-12-18T14:26:02;102592.47;;;2.02;54.58
20942;BME280;10630;53.734;10.282;2022-12-18T14:28:31;102597.13;;;2.16;54.83
20942;BME280;10630;53.734;10.282;2022-12-18T14:30:58;102589.19;;;2.17;54.80
20942;BME280;10630;53.734;10.282;2022-12-18T14:33:26;102590.50;;;2.07;55.08